sensor_id;sensor_type;location;lat;lon;timestamp;temperature;humidity
26051;DHT22;13825;53.496;10.020;2023-06-04T04:34:49;9.30;99.90
26051;DHT22;13825;53.496;10.020;2023-06-04T04:37:23;9.40;99.90
26051;DHT22;13825;53.496;10.020;2023-06-04T04:40:08;9.50;99.90
26051;DHT22;13825;53.496;10.020;2023-06-04T04:48:20;9.90;99.90
26051;DHT22;13825;53.496;10.020;2023-06-04T04:57:04;10.60;99.90
26051;DHT22;13825;53.496;10.020;2023-06-04T04:59:43;10.80;99.90
26051;DHT22;13825;53.496;10.020;2023-06-04T05:02:24;11.20;97.70
26051;DHT22;13825;53.496;10.020;2023-06-04T05:05:05;11.40;94.50
26051;DHT22;13825;53.496;10.020;2023-06-04T05:07:32;11.60;92.40
26051;DHT22;13825;53.496;10.020;2023-06-04T05:09:59;11.70;92.00
26051;DHT22;13825;53.496;10.020;2023-06-04T05:15:29;11.70;85.50
26051;DHT22;13825;53.496;10.020;2023-06-04T05:18:42;11.80;87.90
26051;DHT22;13825;53.496;10.020;2023-06-04T05:22:01;11.80;90.00
26051;DHT22;13825;53.496;10.020;2023-06-04T05:24:54;12.00;86.60
26051;DHT22;13825;53.496;10.020;2023-06-04T06:01:32;12.90;82.10
26051;DHT22;13825;53.496;10.020;2023-06-04T06:04:00;13.00;80.40
26051;DHT22;13825;53.496;10.020;2023-06-04T06:06:27;13.20;81.00
26051;DHT22;13825;53.496;10.020;2023-06-04T06:08:54;13.20;80.70
26051;DHT22;13825;53.496;10.020;2023-06-04T06:11:23;13.30;78.50
26051;DHT22;13825;53.496;10.020;2023-06-04T06:13:52;13.30;80.40
26051;DHT22;13825;53.496;10.020;2023-06-04T06:16:20;13.40;81.90
26051;DHT22;13825;53.496;10.020;2023-06-04T06:18:49;13.40;74.70
26051;DHT22;13825;53.496;10.020;2023-06-04T06:23:57;13.50;78.60
26051;DHT22;13825;53.496;10.020;2023-06-04T06:26:24;13.60;79.00
26051;DHT22;13825;53.496;10.020;2023-06-04T06:28:57;13.80;77.80
26051;DHT22;13825;53.496;10.020;2023-06-04T06:31:27;13.80;76.30
26051;DHT22;13825;53.496;10.020;2023-06-04T06:34:10;13.90;76.70
26051;DHT22;13825;53.496;10.020;2023-06-04T06:36:50;13.80;73.30
26051;DHT22;13825;53.496;10.020;2023-06-04T06:39:18;13.90;71.40
26051;DHT22;13825;53.496;10.020;2023-06-04T06:41:45;13.90;76.40
26051;DHT22;13825;53.496;10.020;2023-06-04T06:44:29;13.90;77.10
26051;DHT22;13825;53.496;10.020;2023-06-04T06:47:03;14.10;76.60
26051;DHT22;13825;53.496;10.020;2023-06-04T06:49:32;14.20;72.50
26051;DHT22;13825;53.496;10.020;2023-06-04T06:52:19;14.20;73.70
26051;DHT22;13825;53.496;10.020;2023-06-04T06:55:12;14.20;71.80
26051;DHT22;13825;53.496;10.020;2023-06-04T06:57:41;14.50;72.60
26051;DHT22;13825;53.496;10.020;2023-06-04T07:00:10;14.60;72.10
26051;DHT22;13825;53.496;10.020;2023-06-04T07:02:37;14.70;75.00
26051;DHT22;13825;53.496;10.020;2023-06-04T07:05:09;14.80;71.40
26051;DHT22;13825;53.496;10.020;2023-06-04T07:07:36;14.90;67.40
26051;DHT22;13825;53.496;10.020;2023-06-04T07:10:04;15.00;66.10
26051;DHT22;13825;53.496;10.020;2023-06-04T07:12:33;15.30;65.60
26051;DHT22;13825;53.496;10.020;2023-06-04T07:15:01;15.20;55.40
26051;DHT22;13825;53.496;10.020;2023-06-04T07:17:30;15.30;60.50
26051;DHT22;13825;53.496;10.020;2023-06-04T07:22:47;15.30;50.20
26051;DHT22;13825;53.496;10.020;2023-06-04T07:28:01;15.40;55.50
26051;DHT22;13825;53.496;10.020;2023-06-04T07:33:21;15.80;46.80
26051;DHT22;13825;53.496;10.020;2023-06-04T07:35:56;15.80;49.70
26051;DHT22;13825;53.496;10.020;2023-06-04T07:38:27;15.90;38.70
26051;DHT22;13825;53.496;10.020;2023-06-04T07:40:58;15.90;38.30
26051;DHT22;13825;53.496;10.020;2023-06-04T07:43:27;16.00;27.60
26051;DHT22;13825;53.496;10.020;2023-06-04T07:45:54;16.00;25.80
26051;DHT22;13825;53.496;10.020;2023-06-04T07:48:21;16.10;49.70
26051;DHT22;13825;53.496;10.020;2023-06-04T07:50:56;16.20;41.20
26051;DHT22;13825;53.496;10.020;2023-06-04T07:53:23;16.40;37.80
26051;DHT22;13825;53.496;10.020;2023-06-04T07:55:52;16.40;23.40
26051;DHT22;13825;53.496;10.020;2023-06-04T07:58:19;16.60;41.00
26051;DHT22;13825;53.496;10.020;2023-06-04T08:00:46;16.80;26.40
26051;DHT22;13825;53.496;10.020;2023-06-04T08:03:16;16.90;15.00
26051;DHT22;13825;53.496;10.020;2023-06-04T08:05:44;16.80;8.20
26051;DHT22;13825;53.496;10.020;2023-06-04T08:08:11;16.90;25.70
26051;DHT22;13825;53.496;10.020;2023-06-04T08:10:39;17.00;13.80
26051;DHT22;13825;53.496;10.020;2023-06-04T08:13:08;17.20;1.10
26051;DHT22;13825;53.496;10.020;2023-06-04T08:15:36;17.20;1.00
26051;DHT22;13825;53.496;10.020;2023-06-04T08:18:03;17.20;1.00
26051;DHT22;13825;53.496;10.020;2023-06-04T08:20:41;17.30;1.00
26051;DHT22;13825;53.496;10.020;2023-06-04T08:29:23;17.80;1.00
26051;DHT22;13825;53.496;10.020;2023-06-04T08:31:54;17.80;1.00
26051;DHT22;13825;53.496;10.020;2023-06-04T08:34:21;17.90;1.00
26051;DHT22;13825;53.496;10.020;2023-06-04T08:36:49;18.10;1.00
26051;DHT22;13825;53.496;10.020;2023-06-04T08:39:16;18.30;1.00
26051;DHT22;13825;53.496;10.020;2023-06-04T08:41:45;18.70;1.00
26051;DHT22;13825;53.496;10.020;2023-06-04T08:44:13;19.10;1.00
26051;DHT22;13825;53.496;10.020;2023-06-04T08:46:44;19.00;1.00
26051;DHT22;13825;53.496;10.020;2023-06-04T08:49:12;19.00;1.00
26051;DHT22;13825;53.496;10.020;2023-06-04T08:51:39;18.80;1.00
26051;DHT22;13825;53.496;10.020;2023-06-04T08:54:09;18.90;1.00
26051;DHT22;13825;53.496;10.020;2023-06-04T08:56:36;19.20;1.00
26051;DHT22;13825;53.496;10.020;2023-06-04T08:59:05;19.20;1.00
26051;DHT22;13825;53.496;10.020;2023-06-04T09:01:33;19.10;1.00
26051;DHT22;13825;53.496;10.020;2023-06-04T09:04:03;19.10;1.00
26051;DHT22;13825;53.496;10.020;2023-06-04T09:06:32;19.30;1.00
26051;DHT22;13825;53.496;10.020;2023-06-04T09:16:45;20.00;1.00
26051;DHT22;13825;53.496;10.020;2023-06-04T09:19:17;19.80;1.00
26051;DHT22;13825;53.496;10.020;2023-06-04T09:21:49;19.70;1.00
26051;DHT22;13825;53.496;10.020;2023-06-04T09:24:16;19.90;1.00
26051;DHT22;13825;53.496;10.020;2023-06-04T09:26:43;20.30;1.00
26051;DHT22;13825;53.496;10.020;2023-06-04T09:29:11;20.40;1.00
26051;DHT22;13825;53.496;10.020;2023-06-04T09:31:38;20.20;1.00
26051;DHT22;13825;53.496;10.020;2023-06-04T09:34:06;20.10;1.00
26051;DHT22;13825;53.496;10.020;2023-06-04T09:36:36;20.40;1.00
26051;DHT22;13825;53.496;10.020;2023-06-04T09:39:15;20.10;1.00
26051;DHT22;13825;53.496;10.020;2023-06-04T09:41:42;20.30;1.00
26051;DHT22;13825;53.496;10.020;2023-06-04T09:44:09;20.90;1.00
26051;DHT22;13825;53.496;10.020;2023-06-04T09:46:38;21.10;1.00
26051;DHT22;13825;53.496;10.020;2023-06-04T09:49:06;20.80;1.00
26051;DHT22;13825;53.496;10.020;2023-06-04T09:51:33;20.70;1.00
26051;DHT22;13825;53.496;10.020;2023-06-04T09:54:03;20.70;1.00
26051;DHT22;13825;53.496;10.020;2023-06-04T09:56:39;21.10;1.00
26051;DHT22;13825;53.496;10.020;2023-06-04T09:59:08;21.20;1.00
26051;DHT22;13825;53.496;10.020;2023-06-04T10:01:38;21.20;1.00
26051;DHT22;13825;53.496;10.020;2023-06-04T10:04:09;21.10;1.00
26051;DHT22;13825;53.496;10.020;2023-06-04T10:06:41;20.90;1.00
26051;DHT22;13825;53.496;10.020;2023-06-04T10:14:25;21.00;1.00
26051;DHT22;13825;53.496;10.020;2023-06-04T10:17:00;21.40;1.00
26051;DHT22;13825;53.496;10.020;2023-06-04T10:19:28;21.50;1.00
26051;DHT22;13825;53.496;10.020;2023-06-04T10:21:56;21.30;1.00
26051;DHT22;13825;53.496;10.020;2023-06-04T10:24:23;21.40;1.00
26051;DHT22;13825;53.496;10.020;2023-06-04T10:27:02;21.50;1.00
26051;DHT22;13825;53.496;10.020;2023-06-04T10:29:40;21.60;1.00
26051;DHT22;13825;53.496;10.020;2023-06-04T10:32:08;21.30;1.00
26051;DHT22;13825;53.496;10.020;2023-06-04T10:34:36;21.70;1.00
26051;DHT22;13825;53.496;10.020;2023-06-04T10:37:04;21.90;1.00
26051;DHT22;13825;53.496;10.020;2023-06-04T10:39:32;21.70;1.00
26051;DHT22;13825;53.496;10.020;2023-06-04T10:44:46;21.90;1.00
26051;DHT22;13825;53.496;10.020;2023-06-04T10:47:23;21.90;1.00
26051;DHT22;13825;53.496;10.020;2023-06-04T10:49:54;21.90;1.00
26051;DHT22;13825;53.496;10.020;2023-06-04T10:52:31;21.80;1.00
26051;DHT22;13825;53.496;10.020;2023-06-04T10:55:05;22.40;1.00
26051;DHT22;13825;53.496;10.020;2023-06-04T11:00:10;22.20;1.00
26051;DHT22;13825;53.496;10.020;2023-06-04T11:02:51;22.10;1.00
26051;DHT22;13825;53.496;10.020;2023-06-04T11:05:33;22.00;1.00
26051;DHT22;13825;53.496;10.020;2023-06-04T11:08:10;22.00;1.00
26051;DHT22;13825;53.496;10.020;2023-06-04T11:10:40;22.00;1.00
26051;DHT22;13825;53.496;10.020;2023-06-04T11:13:08;22.00;1.00
26051;DHT22;13825;53.496;10.020;2023-06-04T11:15:42;22.20;1.00
26051;DHT22;13825;53.496;10.020;2023-06-04T11:18:20;22.50;1.00
26051;DHT22;13825;53.496;10.020;2023-06-04T11:21:13;22.80;1.00
26051;DHT22;13825;53.496;10.020;2023-06-04T11:23:43;22.80;1.00
26051;DHT22;13825;53.496;10.020;2023-06-04T11:26:12;22.40;1.00
26051;DHT22;13825;53.496;10.020;2023-06-04T11:28:40;22.40;1.00
26051;DHT22;13825;53.496;10.020;2023-06-04T11:31:09;22.40;1.00
26051;DHT22;13825;53.496;10.020;2023-06-04T11:33:43;22.10;1.00
26051;DHT22;13825;53.496;10.020;2023-06-04T11:38:54;22.60;1.00
26051;DHT22;13825;53.496;10.020;2023-06-04T11:43:55;23.20;1.00
26051;DHT22;13825;53.496;10.020;2023-06-04T11:56:44;23.60;1.00
26051;DHT22;13825;53.496;10.020;2023-06-04T11:59:15;23.10;1.00
26051;DHT22;13825;53.496;10.020;2023-06-04T12:01:43;22.80;1.00
26051;DHT22;13825;53.496;10.020;2023-06-04T12:04:12;23.10;1.00
26051;DHT22;13825;53.496;10.020;2023-06-04T12:06:51;22.80;1.00
26051;DHT22;13825;53.496;10.020;2023-06-04T12:09:24;22.80;1.00
26051;DHT22;13825;53.496;10.020;2023-06-04T12:17:22;23.40;1.00
26051;DHT22;13825;53.496;10.020;2023-06-04T12:19:53;23.30;1.00
26051;DHT22;13825;53.496;10.020;2023-06-04T12:22:22;22.80;1.00
26051;DHT22;13825;53.496;10.020;2023-06-04T12:24:54;22.80;1.00
26051;DHT22;13825;53.496;10.020;2023-06-04T12:27:36;22.90;1.00
26051;DHT22;13825;53.496;10.020;2023-06-04T12:30:41;23.20;1.00
26051;DHT22;13825;53.496;10.020;2023-06-04T12:33:13;23.70;1.00
26051;DHT22;13825;53.496;10.020;2023-06-04T12:35:50;23.80;1.00
26051;DHT22;13825;53.496;10.020;2023-06-04T12:38:20;24.30;1.00
26051;DHT22;13825;53.496;10.020;2023-06-04T12:44:03;23.50;1.00
26051;DHT22;13825;53.496;10.020;2023-06-04T12:49:08;24.30;1.00
26051;DHT22;13825;53.496;10.020;2023-06-04T12:51:38;24.90;1.00
26051;DHT22;13825;53.496;10.020;2023-06-04T12:54:10;24.70;1.00
26051;DHT22;13825;53.496;10.020;2023-06-04T12:56:39;24.30;1.00
26051;DHT22;13825;53.496;10.020;2023-06-04T12:59:23;24.10;1.00
26051;DHT22;13825;53.496;10.020;2023-06-04T13:05:27;24.30;1.00
26051;DHT22;13825;53.496;10.020;2023-06-04T13:07:55;24.30;1.00
26051;DHT22;13825;53.496;10.020;2023-06-04T13:10:27;24.60;1.00
26051;DHT22;13825;53.496;10.020;2023-06-04T13:15:32;24.30;1.00
26051;DHT22;13825;53.496;10.020;2023-06-04T13:18:39;24.60;1.00
26051;DHT22;13825;53.496;10.020;2023-06-04T13:26:51;24.60;1.00
26051;DHT22;13825;53.496;10.020;2023-06-04T13:29:39;24.80;1.00
26051;DHT22;13825;53.496;10.020;2023-06-04T13:34:53;24.80;1.00
26051;DHT22;13825;53.496;10.020;2023-06-04T13:37:30;25.20;1.00
26051;DHT22;13825;53.496;10.020;2023-06-04T13:40:15;25.40;1.00
26051;DHT22;13825;53.496;10.020;2023-06-04T13:43:11;25.90;1.00
26051;DHT22;13825;53.496;10.020;2023-06-04T13:50:59;27.20;1.00
26051;DHT22;13825;53.496;10.020;2023-06-04T13:56:02;25.90;1.00
26051;DHT22;13825;53.496;10.020;2023-06-04T13:58:31;26.30;1.00
26051;DHT22;13825;53.496;10.020;2023-06-04T14:00:58;26.30;1.00
26051;DHT22;13825;53.496;10.020;2023-06-04T14:03:29;26.20;1.00
26051;DHT22;13825;53.496;10.020;2023-06-04T14:05:56;26.70;1.00
26051;DHT22;13825;53.496;10.020;2023-06-04T14:08:53;27.60;1.00
26051;DHT22;13825;53.496;10.020;2023-06-04T15:16:00;29.70;1.00
26051;DHT22;13825;53.496;10.020;2023-06-04T15:18:36;29.80;1.00
26051;DHT22;13825;53.496;10.020;2023-06-04T15:21:05;29.50;1.00
26051;DHT22;13825;53.496;10.020;2023-06-04T15:23:34;30.00;1.00
26051;DHT22;13825;53.496;10.020;2023-06-04T15:26:04;30.00;1.00
26051;DHT22;13825;53.496;10.020;2023-06-04T15:28:31;30.20;1.00
26051;DHT22;13825;53.496;10.020;2023-06-04T15:31:01;29.20;1.00
26051;DHT22;13825;53.496;10.020;2023-06-04T15:36:17;27.60;1.00
26051;DHT22;13825;53.496;10.020;2023-06-04T15:38:51;28.20;1.00
26051;DHT22;13825;53.496;10.020;2023-06-04T15:41:18;29.50;1.00
26051;DHT22;13825;53.496;10.020;2023-06-04T15:43:46;29.70;1.00
26051;DHT22;13825;53.496;10.020;2023-06-04T15:48:48;31.30;1.00
26051;DHT22;13825;53.496;10.020;2023-06-04T15:51:15;30.80;1.00
26051;DHT22;13825;53.496;10.020;2023-06-04T15:56:18;30.60;1.00
26051;DHT22;13825;53.496;10.020;2023-06-04T16:05:00;30.20;1.00
26051;DHT22;13825;53.496;10.020;2023-06-04T16:07:27;29.60;1.00
26051;DHT22;13825;53.496;10.020;2023-06-04T16:09:54;29.40;1.00
26051;DHT22;13825;53.496;10.020;2023-06-04T16:12:21;29.60;1.00
26051;DHT22;13825;53.496;10.020;2023-06-04T16:14:48;29.40;1.00
26051;DHT22;13825;53.496;10.020;2023-06-04T16:17:19;29.50;1.00
26051;DHT22;13825;53.496;10.020;2023-06-04T16:19:47;28.90;1.00
26051;DHT22;13825;53.496;10.020;2023-06-04T16:22:16;28.70;1.00
26051;DHT22;13825;53.496;10.020;2023-06-04T16:24:46;28.40;1.00
26051;DHT22;13825;53.496;10.020;2023-06-04T16:27:13;28.30;1.00
26051;DHT22;13825;53.496;10.020;2023-06-04T16:29:42;28.10;1.00
26051;DHT22;13825;53.496;10.020;2023-06-04T16:32:23;28.20;1.00
26051;DHT22;13825;53.496;10.020;2023-06-04T16:35:04;27.70;1.00
26051;DHT22;13825;53.496;10.020;2023-06-04T16:37:32;27.30;1.00
26051;DHT22;13825;53.496;10.020;2023-06-04T16:40:00;28.10;1.00
26051;DHT22;13825;53.496;10.020;2023-06-04T16:42:27;28.20;1.00
26051;DHT22;13825;53.496;10.020;2023-06-04T16:45:10;28.20;1.00
26051;DHT22;13825;53.496;10.020;2023-06-04T16:47:52;27.70;1.00
26051;DHT22;13825;53.496;10.020;2023-06-04T16:50:19;27.40;1.00
26051;DHT22;13825;53.496;10.020;2023-06-04T16:53:00;27.20;1.00
26051;DHT22;13825;53.496;10.020;2023-06-04T16:55:40;27.50;1.00
26051;DHT22;13825;53.496;10.020;2023-06-04T16:58:44;27.10;1.00
26051;DHT22;13825;53.496;10.020;2023-06-04T17:01:13;27.20;1.00
26051;DHT22;13825;53.496;10.020;2023-06-04T17:03:41;26.80;1.00
26051;DHT22;13825;53.496;10.020;2023-06-04T17:06:22;27.00;1.00
26051;DHT22;13825;53.496;10.020;2023-06-04T17:12:00;26.00;1.00
26051;DHT22;13825;53.496;10.020;2023-06-04T17:14:27;26.30;1.00
26051;DHT22;13825;53.496;10.020;2023-06-04T17:17:01;26.60;1.00
26051;DHT22;13825;53.496;10.020;2023-06-04T17:19:33;26.60;1.00
26051;DHT22;13825;53.496;10.020;2023-06-04T17:37:37;26.60;1.00
26051;DHT22;13825;53.496;10.020;2023-06-04T17:40:06;26.40;1.00
26051;DHT22;13825;53.496;10.020;2023-06-04T17:42:35;26.20;1.00
26051;DHT22;13825;53.496;10.020;2023-06-04T18:03:12;25.20;1.00
26051;DHT22;13825;53.496;10.020;2023-06-04T18:05:41;25.30;1.00
26051;DHT22;13825;53.496;10.020;2023-06-04T18:08:28;25.20;1.00
26051;DHT22;13825;53.496;10.020;2023-06-04T18:11:10;24.90;1.00
26051;DHT22;13825;53.496;10.020;2023-06-04T18:29:09;23.90;1.00
26051;DHT22;13825;53.496;10.020;2023-06-04T18:31:39;23.40;1.00
26051;DHT22;13825;53.496;10.020;2023-06-04T18:34:06;23.50;1.00
26051;DHT22;13825;53.496;10.020;2023-06-04T18:36:40;23.20;1.00
26051;DHT22;13825;53.496;10.020;2023-06-04T18:39:08;23.20;1.00
26051;DHT22;13825;53.496;10.020;2023-06-04T18:41:38;22.80;1.00
26051;DHT22;13825;53.496;10.020;2023-06-04T18:44:05;22.60;1.00
26051;DHT22;13825;53.496;10.020;2023-06-04T18:46:37;22.90;1.00
26051;DHT22;13825;53.496;10.020;2023-06-04T18:49:09;22.90;1.00
26051;DHT22;13825;53.496;10.020;2023-06-04T18:51:43;22.30;1.00
26051;DHT22;13825;53.496;10.020;2023-06-04T18:54:10;21.50;1.00
26051;DHT22;13825;53.496;10.020;2023-06-04T18:56:39;20.80;1.00
26051;DHT22;13825;53.496;10.020;2023-06-04T18:59:10;20.20;1.00
26051;DHT22;13825;53.496;10.020;2023-06-04T19:01:40;19.70;1.00
26051;DHT22;13825;53.496;10.020;2023-06-04T19:04:09;19.40;1.00
26051;DHT22;13825;53.496;10.020;2023-06-04T19:06:39;19.10;1.00
26051;DHT22;13825;53.496;10.020;2023-06-04T19:09:07;18.80;1.00
26051;DHT22;13825;53.496;10.020;2023-06-04T19:11:34;18.50;1.00
26051;DHT22;13825;53.496;10.020;2023-06-04T19:14:03;18.20;1.00
26051;DHT22;13825;53.496;10.020;2023-06-04T19:16:30;18.20;1.00
26051;DHT22;13825;53.496;10.020;2023-06-04T19:18:58;18.10;1.00
26051;DHT22;13825;53.496;10.020;2023-06-04T19:21:25;17.80;1.00
26051;DHT22;13825;53.496;10.020;2023-06-04T19:23:52;17.80;1.00
26051;DHT22;13825;53.496;10.020;2023-06-04T19:26:19;17.60;1.00
26051;DHT22;13825;53.496;10.020;2023-06-04T19:28:46;17.40;1.00
26051;DHT22;13825;53.496;10.020;2023-06-04T19:31:13;17.40;1.00
26051;DHT22;13825;53.496;10.020;2023-06-04T19:33:40;17.30;1.00
26051;DHT22;13825;53.496;10.020;2023-06-04T19:36:08;17.20;1.00
26051;DHT22;13825;53.496;10.020;2023-06-04T19:38:35;17.10;1.00
26051;DHT22;13825;53.496;10.020;2023-06-04T19:41:03;16.90;1.00
26051;DHT22;13825;53.496;10.020;2023-06-04T19:43:30;16.80;1.00
26051;DHT22;13825;53.496;10.020;2023-06-04T19:45:57;16.80;1.00
26051;DHT22;13825;53.496;10.020;2023-06-04T19:48:27;16.70;1.00
26051;DHT22;13825;53.496;10.020;2023-06-04T19:50:54;16.70;1.00
26051;DHT22;13825;53.496;10.020;2023-06-04T19:53:22;16.60;1.00
26051;DHT22;13825;53.496;10.020;2023-06-04T19:55:49;16.60;1.00
26051;DHT22;13825;53.496;10.020;2023-06-04T19:58:16;16.40;1.00
26051;DHT22;13825;53.496;10.020;2023-06-04T20:00:44;16.40;1.00
26051;DHT22;13825;53.496;10.020;2023-06-04T20:03:11;16.30;1.00
26051;DHT22;13825;53.496;10.020;2023-06-04T20:05:38;16.20;1.00
26051;DHT22;13825;53.496;10.020;2023-06-04T20:08:05;16.20;1.00
26051;DHT22;13825;53.496;10.020;2023-06-04T20:10:34;16.10;1.00
26051;DHT22;13825;53.496;10.020;2023-06-04T20:13:04;16.00;1.00
26051;DHT22;13825;53.496;10.020;2023-06-04T20:15:35;16.00;1.30
26051;DHT22;13825;53.496;10.020;2023-06-04T20:18:05;16.00;7.80
26051;DHT22;13825;53.496;10.020;2023-06-04T20:20:39;15.70;15.70
26051;DHT22;13825;53.496;10.020;2023-06-04T20:23:06;15.60;22.70
26051;DHT22;13825;53.496;10.020;2023-06-04T20:25:37;15.60;30.70
26051;DHT22;13825;53.496;10.020;2023-06-04T20:28:05;15.70;30.60
26051;DHT22;13825;53.496;10.020;2023-06-04T20:30:34;15.60;34.40
26051;DHT22;13825;53.496;10.020;2023-06-04T20:33:01;15.70;35.20
26051;DHT22;13825;53.496;10.020;2023-06-04T20:35:28;15.40;38.70
26051;DHT22;13825;53.496;10.020;2023-06-04T20:37:57;15.30;41.80
26051;DHT22;13825;53.496;10.020;2023-06-04T20:40:27;15.40;43.70
26051;DHT22;13825;53.496;10.020;2023-06-04T20:42:56;15.40;44.70
26051;DHT22;13825;53.496;10.020;2023-06-04T20:45:26;15.40;44.30
26051;DHT22;13825;53.496;10.020;2023-06-04T20:47:54;15.20;49.40
26051;DHT22;13825;53.496;10.020;2023-06-04T20:50:21;15.00;53.00
26051;DHT22;13825;53.496;10.020;2023-06-04T20:52:49;14.90;55.90
26051;DHT22;13825;53.496;10.020;2023-06-04T20:55:17;14.80;59.50
26051;DHT22;13825;53.496;10.020;2023-06-04T20:57:44;14.90;61.30
26051;DHT22;13825;53.496;10.020;2023-06-04T21:00:16;14.70;61.90
26051;DHT22;13825;53.496;10.020;2023-06-04T21:02:44;14.70;65.00
26051;DHT22;13825;53.496;10.020;2023-06-04T21:05:12;14.60;68.10
26051;DHT22;13825;53.496;10.020;2023-06-04T21:07:39;14.40;71.90
26051;DHT22;13825;53.496;10.020;2023-06-04T21:10:07;14.40;74.20
26051;DHT22;13825;53.496;10.020;2023-06-04T21:12:35;14.30;76.30
26051;DHT22;13825;53.496;10.020;2023-06-04T21:15:03;14.40;79.70
26051;DHT22;13825;53.496;10.020;2023-06-04T21:17:32;14.30;79.90
26051;DHT22;13825;53.496;10.020;2023-06-04T21:19:59;14.40;82.50
26051;DHT22;13825;53.496;10.020;2023-06-04T21:22:28;14.60;82.50
26051;DHT22;13825;53.496;10.020;2023-06-04T21:24:55;14.50;83.10
26051;DHT22;13825;53.496;10.020;2023-06-04T21:27:24;14.50;84.70
26051;DHT22;13825;53.496;10.020;2023-06-04T21:29:52;14.40;87.50
26051;DHT22;13825;53.496;10.020;2023-06-04T21:32:20;14.30;90.40
26051;DHT22;13825;53.496;10.020;2023-06-04T21:34:49;14.20;92.60
26051;DHT22;13825;53.496;10.020;2023-06-04T21:37:16;14.10;93.80
26051;DHT22;13825;53.496;10.020;2023-06-04T21:39:44;14.00;95.10
26051;DHT22;13825;53.496;10.020;2023-06-04T21:42:12;14.00;96.10
26051;DHT22;13825;53.496;10.020;2023-06-04T21:44:39;13.80;97.80
26051;DHT22;13825;53.496;10.020;2023-06-04T21:47:06;13.70;99.90
26051;DHT22;13825;53.496;10.020;2023-06-04T21:49:34;13.70;99.90
26051;DHT22;13825;53.496;10.020;2023-06-04T21:52:03;13.70;99.90
26051;DHT22;13825;53.496;10.020;2023-06-04T21:54:30;13.60;99.90
26051;DHT22;13825;53.496;10.020;2023-06-04T21:56:58;13.50;99.90
26051;DHT22;13825;53.496;10.020;2023-06-04T21:59:25;13.40;99.90
26051;DHT22;13825;53.496;10.020;2023-06-04T22:01:53;13.30;99.90
26051;DHT22;13825;53.496;10.020;2023-06-04T22:04:20;13.20;99.90
26051;DHT22;13825;53.496;10.020;2023-06-04T22:06:48;13.20;99.90
26051;DHT22;13825;53.496;10.020;2023-06-04T22:09:17;13.10;99.90
26051;DHT22;13825;53.496;10.020;2023-06-04T22:11:46;13.20;99.90
26051;DHT22;13825;53.496;10.020;2023-06-04T22:14:14;13.10;99.90
26051;DHT22;13825;53.496;10.020;2023-06-04T22:16:42;13.10;99.90
26051;DHT22;13825;53.496;10.020;2023-06-04T22:19:10;13.20;99.90
26051;DHT22;13825;53.496;10.020;2023-06-04T22:21:38;13.20;99.90
26051;DHT22;13825;53.496;10.020;2023-06-04T22:24:07;13.20;99.90
26051;DHT22;13825;53.496;10.020;2023-06-04T22:26:36;13.20;99.90
26051;DHT22;13825;53.496;10.020;2023-06-04T22:29:03;13.20;99.90
26051;DHT22;13825;53.496;10.020;2023-06-04T22:31:31;13.20;99.90
26051;DHT22;13825;53.496;10.020;2023-06-04T22:33:58;13.10;99.90
26051;DHT22;13825;53.496;10.020;2023-06-04T22:36:25;13.10;99.90
26051;DHT22;13825;53.496;10.020;2023-06-04T22:38:53;13.10;99.90
26051;DHT22;13825;53.496;10.020;2023-06-04T22:41:21;13.00;99.90
26051;DHT22;13825;53.496;10.020;2023-06-04T22:43:51;13.00;99.90
26051;DHT22;13825;53.496;10.020;2023-06-04T22:46:21;12.90;99.90
26051;DHT22;13825;53.496;10.020;2023-06-04T22:48:49;12.80;99.90
26051;DHT22;13825;53.496;10.020;2023-06-04T22:51:16;12.80;99.90
26051;DHT22;13825;53.496;10.020;2023-06-04T22:53:44;12.70;99.90
26051;DHT22;13825;53.496;10.020;2023-06-04T22:56:11;12.60;99.90
26051;DHT22;13825;53.496;10.020;2023-06-04T22:58:40;12.60;99.90
26051;DHT22;13825;53.496;10.020;2023-06-04T23:01:09;12.60;99.90
26051;DHT22;13825;53.496;10.020;2023-06-04T23:03:36;12.60;99.90
26051;DHT22;13825;53.496;10.020;2023-06-04T23:06:03;12.40;99.90
26051;DHT22;13825;53.496;10.020;2023-06-04T23:08:31;12.40;99.90
26051;DHT22;13825;53.496;10.020;2023-06-04T23:10:59;12.30;99.90
26051;DHT22;13825;53.496;10.020;2023-06-04T23:13:26;12.30;99.90
26051;DHT22;13825;53.496;10.020;2023-06-04T23:15:54;12.20;99.90
26051;DHT22;13825;53.496;10.020;2023-06-04T23:18:25;12.20;99.90
26051;DHT22;13825;53.496;10.020;2023-06-04T23:20:52;12.10;99.90
26051;DHT22;13825;53.496;10.020;2023-06-04T23:23:20;12.20;99.90
26051;DHT22;13825;53.496;10.020;2023-06-04T23:25:47;12.10;99.90
26051;DHT22;13825;53.496;10.020;2023-06-04T23:28:15;12.00;99.90
26051;DHT22;13825;53.496;10.020;2023-06-04T23:30:42;12.00;99.90
26051;DHT22;13825;53.496;10.020;2023-06-04T23:33:11;11.90;99.90
26051;DHT22;13825;53.496;10.020;2023-06-04T23:35:40;11.90;99.90
26051;DHT22;13825;53.496;10.020;2023-06-04T23:38:08;11.90;99.90
26051;DHT22;13825;53.496;10.020;2023-06-04T23:40:36;11.80;99.90
26051;DHT22;13825;53.496;10.020;2023-06-04T23:43:03;11.90;99.90
26051;DHT22;13825;53.496;10.020;2023-06-04T23:45:30;11.70;99.90
26051;DHT22;13825;53.496;10.020;2023-06-04T23:47:58;11.70;99.90
26051;DHT22;13825;53.496;10.020;2023-06-04T23:50:25;11.60;99.90
26051;DHT22;13825;53.496;10.020;2023-06-04T23:52:54;11.60;99.90
26051;DHT22;13825;53.496;10.020;2023-06-04T23:55:21;11.50;99.90
26051;DHT22;13825;53.496;10.020;2023-06-04T23:57:48;11.50;99.90
